sensor_id;sensor_type;location;lat;lon;timestamp;P1;durP1;ratioP1;P2;durP2;ratioP2
51066;SDS011;37112;45.892;-123.962;2023-02-11T00:02:02;50.70;;;9.00;;
51066;SDS011;37112;45.892;-123.962;2023-02-11T00:04:15;52.20;;;10.00;;
51066;SDS011;37112;45.892;-123.962;2023-02-11T00:06:29;51.20;;;10.20;;
51066;SDS011;37112;45.892;-123.962;2023-02-11T00:08:43;35.20;;;6.30;;
51066;SDS011;37112;45.892;-123.962;2023-02-11T00:10:57;39.80;;;9.40;;
51066;SDS011;37112;45.892;-123.962;2023-02-11T00:13:10;69.40;;;13.20;;
51066;SDS011;37112;45.892;-123.962;2023-02-11T00:15:23;30.30;;;5.40;;
51066;SDS011;37112;45.892;-123.962;2023-02-11T00:17:36;24.90;;;5.60;;
51066;SDS011;37112;45.892;-123.962;2023-02-11T00:19:50;48.10;;;8.40;;
51066;SDS011;37112;45.892;-123.962;2023-02-11T00:22:04;30.10;;;6.10;;
51066;SDS011;37112;45.892;-123.962;2023-02-11T00:24:18;29.30;;;5.70;;
51066;SDS011;37112;45.892;-123.962;2023-02-11T00:26:32;24.20;;;3.60;;
51066;SDS011;37112;45.892;-123.962;2023-02-11T00:28:45;24.30;;;3.50;;
51066;SDS011;37112;45.892;-123.962;2023-02-11T00:31:00;37.00;;;6.90;;
51066;SDS011;37112;45.892;-123.962;2023-02-11T00:33:14;19.10;;;4.60;;
51066;SDS011;37112;45.892;-123.962;2023-02-11T00:35:26;28.80;;;3.80;;
51066;SDS011;37112;45.892;-123.962;2023-02-11T00:37:41;14.30;;;3.10;;
51066;SDS011;37112;45.892;-123.962;2023-02-11T00:39:54;25.00;;;4.10;;
51066;SDS011;37112;45.892;-123.962;2023-02-11T00:42:11;15.30;;;4.10;;
51066;SDS011;37112;45.892;-123.962;2023-02-11T00:44:26;16.80;;;2.90;;
51066;SDS011;37112;45.892;-123.962;2023-02-11T00:46:39;20.20;;;3.40;;
51066;SDS011;37112;45.892;-123.962;2023-02-11T00:48:53;15.80;;;2.90;;
51066;SDS011;37112;45.892;-123.962;2023-02-11T00:51:06;24.30;;;3.50;;
51066;SDS011;37112;45.892;-123.962;2023-02-11T00:53:20;13.60;;;2.80;;
51066;SDS011;37112;45.892;-123.962;2023-02-11T00:55:33;19.90;;;2.90;;
51066;SDS011;37112;45.892;-123.962;2023-02-11T00:57:47;10.40;;;2.00;;
51066;SDS011;37112;45.892;-123.962;2023-02-11T01:00:00;12.30;;;1.80;;
51066;SDS011;37112;45.892;-123.962;2023-02-11T01:02:13;15.10;;;1.80;;
51066;SDS011;37112;45.892;-123.962;2023-02-11T01:04:27;10.10;;;2.20;;
51066;SDS011;37112;45.892;-123.962;2023-02-11T01:06:41;7.50;;;1.50;;
51066;SDS011;37112;45.892;-123.962;2023-02-11T01:08:54;12.90;;;1.60;;
51066;SDS011;37112;45.892;-123.962;2023-02-11T01:11:10;10.70;;;2.10;;
51066;SDS011;37112;45.892;-123.962;2023-02-11T01:13:26;9.00;;;2.00;;
51066;SDS011;37112;45.892;-123.962;2023-02-11T01:15:41;15.70;;;2.40;;
51066;SDS011;37112;45.892;-123.962;2023-02-11T01:17:55;14.40;;;2.30;;
51066;SDS011;37112;45.892;-123.962;2023-02-11T01:20:11;12.20;;;2.20;;
51066;SDS011;37112;45.892;-123.962;2023-02-11T01:22:26;10.70;;;2.70;;
51066;SDS011;37112;45.892;-123.962;2023-02-11T01:24:42;8.50;;;2.40;;
51066;SDS011;37112;45.892;-123.962;2023-02-11T01:26:55;9.50;;;2.50;;
51066;SDS011;37112;45.892;-123.962;2023-02-11T01:29:08;16.40;;;3.00;;
51066;SDS011;37112;45.892;-123.962;2023-02-11T01:31:22;12.30;;;2.80;;
51066;SDS011;37112;45.892;-123.962;2023-02-11T01:33:35;10.90;;;1.90;;
51066;SDS011;37112;45.892;-123.962;2023-02-11T01:35:48;17.90;;;3.20;;
51066;SDS011;37112;45.892;-123.962;2023-02-11T01:38:02;16.50;;;5.00;;
51066;SDS011;37112;45.892;-123.962;2023-02-11T01:40:15;18.90;;;3.20;;
51066;SDS011;37112;45.892;-123.962;2023-02-11T01:42:29;15.70;;;4.30;;
51066;SDS011;37112;45.892;-123.962;2023-02-11T01:44:43;17.50;;;4.50;;
51066;SDS011;37112;45.892;-123.962;2023-02-11T01:46:59;14.40;;;2.40;;
51066;SDS011;37112;45.892;-123.962;2023-02-11T01:49:13;10.00;;;2.80;;
51066;SDS011;37112;45.892;-123.962;2023-02-11T01:51:31;16.50;;;2.50;;
51066;SDS011;37112;45.892;-123.962;2023-02-11T01:53:47;12.00;;;2.30;;
51066;SDS011;37112;45.892;-123.962;2023-02-11T01:56:19;14.80;;;2.80;;
51066;SDS011;37112;45.892;-123.962;2023-02-11T01:58:49;9.80;;;1.80;;
51066;SDS011;37112;45.892;-123.962;2023-02-11T02:01:08;9.00;;;2.30;;
51066;SDS011;37112;45.892;-123.962;2023-02-11T02:03:25;20.70;;;3.00;;
51066;SDS011;37112;45.892;-123.962;2023-02-11T02:05:41;10.50;;;2.50;;
51066;SDS011;37112;45.892;-123.962;2023-02-11T02:08:02;8.50;;;3.50;;
51066;SDS011;37112;45.892;-123.962;2023-02-11T02:10:22;8.20;;;3.10;;
51066;SDS011;37112;45.892;-123.962;2023-02-11T02:12:39;10.60;;;2.70;;
51066;SDS011;37112;45.892;-123.962;2023-02-11T02:17:36;12.50;;;3.00;;
51066;SDS011;37112;45.892;-123.962;2023-02-11T02:20:02;11.60;;;3.10;;
51066;SDS011;37112;45.892;-123.962;2023-02-11T02:22:47;15.70;;;3.70;;
51066;SDS011;37112;45.892;-123.962;2023-02-11T02:25:21;13.60;;;3.20;;
51066;SDS011;37112;45.892;-123.962;2023-02-11T02:27:50;15.70;;;4.10;;
51066;SDS011;37112;45.892;-123.962;2023-02-11T02:32:49;19.90;;;3.90;;
51066;SDS011;37112;45.892;-123.962;2023-02-11T02:35:30;19.80;;;3.70;;
51066;SDS011;37112;45.892;-123.962;2023-02-11T02:37:55;22.00;;;4.40;;
51066;SDS011;37112;45.892;-123.962;2023-02-11T02:40:11;23.80;;;5.30;;
51066;SDS011;37112;45.892;-123.962;2023-02-11T02:42:29;22.80;;;4.60;;
51066;SDS011;37112;45.892;-123.962;2023-02-11T02:44:42;15.90;;;4.60;;
51066;SDS011;37112;45.892;-123.962;2023-02-11T02:47:00;29.50;;;6.20;;
51066;SDS011;37112;45.892;-123.962;2023-02-11T02:49:14;34.70;;;6.80;;
51066;SDS011;37112;45.892;-123.962;2023-02-11T02:51:32;27.10;;;5.40;;
51066;SDS011;37112;45.892;-123.962;2023-02-11T02:54:06;18.00;;;5.10;;
51066;SDS011;37112;45.892;-123.962;2023-02-11T02:56:45;27.40;;;6.20;;
51066;SDS011;37112;45.892;-123.962;2023-02-11T02:59:06;35.10;;;8.40;;
51066;SDS011;37112;45.892;-123.962;2023-02-11T03:01:45;33.40;;;7.90;;
51066;SDS011;37112;45.892;-123.962;2023-02-11T03:04:08;38.90;;;8.70;;
51066;SDS011;37112;45.892;-123.962;2023-02-11T03:06:29;34.30;;;9.60;;
51066;SDS011;37112;45.892;-123.962;2023-02-11T03:08:47;32.00;;;8.40;;
51066;SDS011;37112;45.892;-123.962;2023-02-11T03:11:04;27.00;;;8.80;;
51066;SDS011;37112;45.892;-123.962;2023-02-11T03:13:19;45.10;;;11.20;;
51066;SDS011;37112;45.892;-123.962;2023-02-11T03:15:40;29.60;;;9.50;;
51066;SDS011;37112;45.892;-123.962;2023-02-11T03:17:57;35.10;;;8.50;;
51066;SDS011;37112;45.892;-123.962;2023-02-11T03:20:13;34.10;;;7.70;;
51066;SDS011;37112;45.892;-123.962;2023-02-11T03:22:31;28.60;;;7.50;;
51066;SDS011;37112;45.892;-123.962;2023-02-11T03:24:48;32.30;;;6.60;;
51066;SDS011;37112;45.892;-123.962;2023-02-11T03:27:02;35.30;;;8.60;;
51066;SDS011;37112;45.892;-123.962;2023-02-11T03:29:25;28.30;;;7.00;;
51066;SDS011;37112;45.892;-123.962;2023-02-11T03:31:45;28.60;;;6.60;;
51066;SDS011;37112;45.892;-123.962;2023-02-11T03:34:05;21.50;;;5.10;;
51066;SDS011;37112;45.892;-123.962;2023-02-11T03:36:23;38.40;;;6.00;;
51066;SDS011;37112;45.892;-123.962;2023-02-11T03:38:54;29.30;;;7.80;;
51066;SDS011;37112;45.892;-123.962;2023-02-11T03:41:09;25.10;;;7.20;;
51066;SDS011;37112;45.892;-123.962;2023-02-11T03:43:25;34.70;;;7.90;;
51066;SDS011;37112;45.892;-123.962;2023-02-11T03:45:41;28.70;;;5.00;;
51066;SDS011;37112;45.892;-123.962;2023-02-11T03:47:56;18.80;;;4.10;;
51066;SDS011;37112;45.892;-123.962;2023-02-11T03:50:13;24.10;;;4.80;;
51066;SDS011;37112;45.892;-123.962;2023-02-11T03:52:27;25.30;;;4.80;;
51066;SDS011;37112;45.892;-123.962;2023-02-11T03:54:41;22.60;;;3.40;;
51066;SDS011;37112;45.892;-123.962;2023-02-11T03:56:58;19.70;;;3.60;;
51066;SDS011;37112;45.892;-123.962;2023-02-11T03:59:13;22.20;;;3.80;;
51066;SDS011;37112;45.892;-123.962;2023-02-11T04:01:27;16.20;;;4.30;;
51066;SDS011;37112;45.892;-123.962;2023-02-11T04:03:40;13.50;;;3.10;;
51066;SDS011;37112;45.892;-123.962;2023-02-11T04:05:54;19.40;;;4.80;;
51066;SDS011;37112;45.892;-123.962;2023-02-11T04:08:07;16.50;;;3.30;;
51066;SDS011;37112;45.892;-123.962;2023-02-11T04:10:21;12.20;;;3.20;;
51066;SDS011;37112;45.892;-123.962;2023-02-11T04:14:46;15.40;;;5.20;;
51066;SDS011;37112;45.892;-123.962;2023-02-11T04:16:59;11.90;;;4.00;;
51066;SDS011;37112;45.892;-123.962;2023-02-11T04:19:12;17.70;;;4.30;;
51066;SDS011;37112;45.892;-123.962;2023-02-11T04:21:26;18.90;;;5.10;;
51066;SDS011;37112;45.892;-123.962;2023-02-11T04:23:43;22.10;;;5.80;;
51066;SDS011;37112;45.892;-123.962;2023-02-11T04:25:56;19.90;;;5.80;;
51066;SDS011;37112;45.892;-123.962;2023-02-11T04:28:10;15.20;;;3.90;;
51066;SDS011;37112;45.892;-123.962;2023-02-11T04:30:24;18.30;;;5.00;;
51066;SDS011;37112;45.892;-123.962;2023-02-11T04:32:40;10.60;;;3.60;;
51066;SDS011;37112;45.892;-123.962;2023-02-11T04:34:53;9.40;;;3.80;;
51066;SDS011;37112;45.892;-123.962;2023-02-11T04:37:07;11.90;;;4.40;;
51066;SDS011;37112;45.892;-123.962;2023-02-11T04:39:20;12.50;;;4.70;;
51066;SDS011;37112;45.892;-123.962;2023-02-11T04:41:33;16.30;;;4.00;;
51066;SDS011;37112;45.892;-123.962;2023-02-11T04:43:49;13.10;;;3.70;;
51066;SDS011;37112;45.892;-123.962;2023-02-11T04:46:05;16.40;;;3.60;;
51066;SDS011;37112;45.892;-123.962;2023-02-11T04:48:19;16.20;;;4.50;;
51066;SDS011;37112;45.892;-123.962;2023-02-11T04:50:34;13.10;;;3.70;;
51066;SDS011;37112;45.892;-123.962;2023-02-11T04:52:48;14.80;;;3.80;;
51066;SDS011;37112;45.892;-123.962;2023-02-11T04:55:01;9.50;;;3.70;;
51066;SDS011;37112;45.892;-123.962;2023-02-11T04:57:15;11.70;;;3.50;;
51066;SDS011;37112;45.892;-123.962;2023-02-11T04:59:34;15.30;;;4.20;;
51066;SDS011;37112;45.892;-123.962;2023-02-11T05:01:48;11.10;;;2.90;;
51066;SDS011;37112;45.892;-123.962;2023-02-11T05:04:02;11.00;;;2.20;;
51066;SDS011;37112;45.892;-123.962;2023-02-11T05:06:16;14.70;;;3.60;;
51066;SDS011;37112;45.892;-123.962;2023-02-11T05:08:30;16.90;;;2.50;;
51066;SDS011;37112;45.892;-123.962;2023-02-11T05:10:46;12.70;;;2.50;;
51066;SDS011;37112;45.892;-123.962;2023-02-11T05:12:59;9.10;;;2.70;;
51066;SDS011;37112;45.892;-123.962;2023-02-11T05:15:13;15.00;;;2.60;;
51066;SDS011;37112;45.892;-123.962;2023-02-11T05:17:26;15.70;;;3.80;;
51066;SDS011;37112;45.892;-123.962;2023-02-11T05:19:39;9.80;;;2.70;;
51066;SDS011;37112;45.892;-123.962;2023-02-11T05:21:53;13.60;;;4.30;;
51066;SDS011;37112;45.892;-123.962;2023-02-11T05:24:09;15.10;;;3.70;;
51066;SDS011;37112;45.892;-123.962;2023-02-11T05:26:22;13.00;;;3.40;;
51066;SDS011;37112;45.892;-123.962;2023-02-11T05:28:36;11.80;;;3.90;;
51066;SDS011;37112;45.892;-123.962;2023-02-11T05:30:54;16.80;;;4.90;;
51066;SDS011;37112;45.892;-123.962;2023-02-11T05:33:08;16.80;;;4.50;;
51066;SDS011;37112;45.892;-123.962;2023-02-11T05:35:21;11.10;;;3.70;;
51066;SDS011;37112;45.892;-123.962;2023-02-11T05:37:34;19.30;;;5.80;;
51066;SDS011;37112;45.892;-123.962;2023-02-11T05:39:48;15.30;;;4.10;;
51066;SDS011;37112;45.892;-123.962;2023-02-11T05:42:01;13.40;;;4.60;;
51066;SDS011;37112;45.892;-123.962;2023-02-11T05:44:14;14.10;;;4.80;;
51066;SDS011;37112;45.892;-123.962;2023-02-11T05:46:27;11.50;;;5.50;;
51066;SDS011;37112;45.892;-123.962;2023-02-11T05:48:40;14.30;;;5.50;;
51066;SDS011;37112;45.892;-123.962;2023-02-11T05:50:54;16.70;;;7.10;;
51066;SDS011;37112;45.892;-123.962;2023-02-11T05:53:07;13.50;;;5.40;;
51066;SDS011;37112;45.892;-123.962;2023-02-11T05:55:21;10.50;;;4.40;;
51066;SDS011;37112;45.892;-123.962;2023-02-11T05:57:34;14.70;;;4.70;;
51066;SDS011;37112;45.892;-123.962;2023-02-11T05:59:47;13.10;;;3.30;;
51066;SDS011;37112;45.892;-123.962;2023-02-11T06:02:00;8.90;;;2.20;;
51066;SDS011;37112;45.892;-123.962;2023-02-11T06:04:17;9.50;;;3.00;;
51066;SDS011;37112;45.892;-123.962;2023-02-11T06:06:31;7.70;;;1.90;;
51066;SDS011;37112;45.892;-123.962;2023-02-11T06:08:45;10.50;;;2.60;;
51066;SDS011;37112;45.892;-123.962;2023-02-11T06:11:01;9.30;;;2.80;;
51066;SDS011;37112;45.892;-123.962;2023-02-11T06:13:17;9.80;;;2.90;;
51066;SDS011;37112;45.892;-123.962;2023-02-11T06:15:31;13.70;;;4.20;;
51066;SDS011;37112;45.892;-123.962;2023-02-11T06:17:44;20.70;;;4.60;;
51066;SDS011;37112;45.892;-123.962;2023-02-11T06:19:57;16.10;;;4.20;;
51066;SDS011;37112;45.892;-123.962;2023-02-11T06:22:10;12.60;;;2.80;;
51066;SDS011;37112;45.892;-123.962;2023-02-11T06:24:23;16.00;;;3.80;;
51066;SDS011;37112;45.892;-123.962;2023-02-11T06:26:56;9.70;;;3.60;;
51066;SDS011;37112;45.892;-123.962;2023-02-11T06:29:10;18.20;;;4.10;;
51066;SDS011;37112;45.892;-123.962;2023-02-11T06:31:23;12.10;;;3.80;;
51066;SDS011;37112;45.892;-123.962;2023-02-11T06:33:36;14.10;;;3.40;;
51066;SDS011;37112;45.892;-123.962;2023-02-11T06:35:50;12.60;;;3.60;;
51066;SDS011;37112;45.892;-123.962;2023-02-11T06:38:03;12.50;;;2.90;;
51066;SDS011;37112;45.892;-123.962;2023-02-11T06:40:17;12.30;;;4.00;;
51066;SDS011;37112;45.892;-123.962;2023-02-11T06:42:30;13.30;;;2.70;;
51066;SDS011;37112;45.892;-123.962;2023-02-11T06:44:45;11.40;;;2.90;;
51066;SDS011;37112;45.892;-123.962;2023-02-11T06:46:58;14.60;;;3.30;;
51066;SDS011;37112;45.892;-123.962;2023-02-11T06:49:12;13.70;;;3.20;;
51066;SDS011;37112;45.892;-123.962;2023-02-11T06:51:25;8.90;;;2.30;;
51066;SDS011;37112;45.892;-123.962;2023-02-11T06:53:40;6.20;;;2.10;;
51066;SDS011;37112;45.892;-123.962;2023-02-11T06:55:54;13.50;;;2.70;;
51066;SDS011;37112;45.892;-123.962;2023-02-11T06:58:10;7.70;;;2.60;;
51066;SDS011;37112;45.892;-123.962;2023-02-11T07:00:23;11.30;;;2.60;;
51066;SDS011;37112;45.892;-123.962;2023-02-11T07:02:37;17.80;;;3.20;;
51066;SDS011;37112;45.892;-123.962;2023-02-11T07:04:50;12.20;;;4.30;;
51066;SDS011;37112;45.892;-123.962;2023-02-11T07:07:04;6.70;;;2.70;;
51066;SDS011;37112;45.892;-123.962;2023-02-11T07:09:16;13.90;;;4.90;;
51066;SDS011;37112;45.892;-123.962;2023-02-11T07:11:29;9.70;;;2.70;;
51066;SDS011;37112;45.892;-123.962;2023-02-11T07:13:43;9.00;;;2.30;;
51066;SDS011;37112;45.892;-123.962;2023-02-11T07:15:57;10.10;;;2.80;;
51066;SDS011;37112;45.892;-123.962;2023-02-11T07:18:12;7.10;;;2.10;;
51066;SDS011;37112;45.892;-123.962;2023-02-11T07:20:26;21.00;;;3.10;;
51066;SDS011;37112;45.892;-123.962;2023-02-11T07:22:39;10.60;;;1.50;;
51066;SDS011;37112;45.892;-123.962;2023-02-11T07:24:52;9.90;;;1.50;;
51066;SDS011;37112;45.892;-123.962;2023-02-11T07:27:05;12.50;;;2.00;;
51066;SDS011;37112;45.892;-123.962;2023-02-11T07:29:19;7.20;;;2.00;;
51066;SDS011;37112;45.892;-123.962;2023-02-11T07:31:32;9.10;;;3.30;;
51066;SDS011;37112;45.892;-123.962;2023-02-11T07:33:46;17.90;;;3.30;;
51066;SDS011;37112;45.892;-123.962;2023-02-11T07:36:01;19.10;;;5.90;;
51066;SDS011;37112;45.892;-123.962;2023-02-11T07:38:15;14.10;;;5.50;;
51066;SDS011;37112;45.892;-123.962;2023-02-11T07:40:29;29.80;;;6.70;;
51066;SDS011;37112;45.892;-123.962;2023-02-11T07:42:42;12.60;;;3.60;;
51066;SDS011;37112;45.892;-123.962;2023-02-11T07:44:55;8.90;;;3.20;;
51066;SDS011;37112;45.892;-123.962;2023-02-11T07:47:08;21.10;;;4.70;;
51066;SDS011;37112;45.892;-123.962;2023-02-11T07:49:21;7.70;;;2.40;;
51066;SDS011;37112;45.892;-123.962;2023-02-11T07:51:34;13.10;;;3.00;;
51066;SDS011;37112;45.892;-123.962;2023-02-11T07:53:47;9.80;;;2.20;;
51066;SDS011;37112;45.892;-123.962;2023-02-11T07:56:01;5.90;;;1.90;;
51066;SDS011;37112;45.892;-123.962;2023-02-11T07:58:16;9.10;;;1.80;;
51066;SDS011;37112;45.892;-123.962;2023-02-11T08:00:29;6.50;;;1.70;;
51066;SDS011;37112;45.892;-123.962;2023-02-11T08:02:43;7.30;;;1.60;;
51066;SDS011;37112;45.892;-123.962;2023-02-11T08:04:56;6.60;;;1.90;;
51066;SDS011;37112;45.892;-123.962;2023-02-11T08:07:09;10.10;;;2.10;;
51066;SDS011;37112;45.892;-123.962;2023-02-11T08:09:24;7.00;;;1.70;;
51066;SDS011;37112;45.892;-123.962;2023-02-11T08:11:40;11.50;;;2.20;;
51066;SDS011;37112;45.892;-123.962;2023-02-11T08:13:53;7.20;;;1.80;;
51066;SDS011;37112;45.892;-123.962;2023-02-11T08:16:07;4.90;;;1.00;;
51066;SDS011;37112;45.892;-123.962;2023-02-11T08:18:26;3.40;;;1.40;;
51066;SDS011;37112;45.892;-123.962;2023-02-11T08:20:39;5.50;;;1.40;;
51066;SDS011;37112;45.892;-123.962;2023-02-11T08:22:52;13.90;;;2.00;;
51066;SDS011;37112;45.892;-123.962;2023-02-11T08:25:07;10.90;;;2.10;;
51066;SDS011;37112;45.892;-123.962;2023-02-11T08:27:21;8.50;;;1.40;;
51066;SDS011;37112;45.892;-123.962;2023-02-11T08:29:35;6.00;;;1.70;;
51066;SDS011;37112;45.892;-123.962;2023-02-11T08:31:49;9.50;;;1.10;;
51066;SDS011;37112;45.892;-123.962;2023-02-11T08:34:02;10.50;;;1.80;;
51066;SDS011;37112;45.892;-123.962;2023-02-11T08:36:17;8.80;;;1.50;;
51066;SDS011;37112;45.892;-123.962;2023-02-11T08:38:30;9.30;;;2.10;;
51066;SDS011;37112;45.892;-123.962;2023-02-11T08:40:43;6.70;;;1.50;;
51066;SDS011;37112;45.892;-123.962;2023-02-11T08:42:57;6.00;;;1.70;;
51066;SDS011;37112;45.892;-123.962;2023-02-11T08:45:13;4.80;;;1.20;;
51066;SDS011;37112;45.892;-123.962;2023-02-11T08:47:26;6.30;;;1.70;;
51066;SDS011;37112;45.892;-123.962;2023-02-11T08:49:39;4.50;;;1.20;;
51066;SDS011;37112;45.892;-123.962;2023-02-11T08:51:53;8.20;;;2.10;;
51066;SDS011;37112;45.892;-123.962;2023-02-11T08:54:10;7.70;;;2.60;;
51066;SDS011;37112;45.892;-123.962;2023-02-11T08:56:24;6.10;;;1.80;;
51066;SDS011;37112;45.892;-123.962;2023-02-11T08:58:38;4.30;;;1.90;;
51066;SDS011;37112;45.892;-123.962;2023-02-11T09:00:51;12.30;;;1.90;;
51066;SDS011;37112;45.892;-123.962;2023-02-11T09:03:06;8.90;;;1.40;;
51066;SDS011;37112;45.892;-123.962;2023-02-11T09:05:19;4.80;;;1.30;;
51066;SDS011;37112;45.892;-123.962;2023-02-11T09:07:52;8.30;;;2.30;;
51066;SDS011;37112;45.892;-123.962;2023-02-11T09:10:06;7.50;;;2.70;;
51066;SDS011;37112;45.892;-123.962;2023-02-11T09:12:19;5.30;;;1.90;;
51066;SDS011;37112;45.892;-123.962;2023-02-11T09:14:32;3.60;;;1.20;;
51066;SDS011;37112;45.892;-123.962;2023-02-11T09:16:46;9.80;;;2.40;;
51066;SDS011;37112;45.892;-123.962;2023-02-11T09:19:00;13.40;;;2.60;;
51066;SDS011;37112;45.892;-123.962;2023-02-11T09:21:14;11.20;;;1.50;;
51066;SDS011;37112;45.892;-123.962;2023-02-11T09:23:28;8.30;;;1.50;;
51066;SDS011;37112;45.892;-123.962;2023-02-11T09:25:41;7.50;;;1.70;;
51066;SDS011;37112;45.892;-123.962;2023-02-11T09:27:55;9.20;;;2.10;;
51066;SDS011;37112;45.892;-123.962;2023-02-11T09:30:12;12.10;;;2.50;;
51066;SDS011;37112;45.892;-123.962;2023-02-11T09:32:25;7.20;;;1.80;;
51066;SDS011;37112;45.892;-123.962;2023-02-11T09:34:39;6.80;;;1.50;;
51066;SDS011;37112;45.892;-123.962;2023-02-11T09:36:51;4.60;;;1.70;;
51066;SDS011;37112;45.892;-123.962;2023-02-11T09:39:06;5.20;;;1.60;;
51066;SDS011;37112;45.892;-123.962;2023-02-11T09:41:31;7.90;;;1.50;;
51066;SDS011;37112;45.892;-123.962;2023-02-11T09:43:49;5.80;;;1.30;;
51066;SDS011;37112;45.892;-123.962;2023-02-11T09:46:05;7.80;;;1.50;;
51066;SDS011;37112;45.892;-123.962;2023-02-11T09:48:22;6.50;;;1.60;;
51066;SDS011;37112;45.892;-123.962;2023-02-11T09:50:38;6.20;;;1.50;;
51066;SDS011;37112;45.892;-123.962;2023-02-11T09:52:53;3.00;;;1.40;;
51066;SDS011;37112;45.892;-123.962;2023-02-11T09:55:14;4.90;;;1.70;;
51066;SDS011;37112;45.892;-123.962;2023-02-11T09:57:31;11.80;;;1.60;;
51066;SDS011;37112;45.892;-123.962;2023-02-11T09:59:45;5.40;;;1.10;;
51066;SDS011;37112;45.892;-123.962;2023-02-11T10:01:59;10.80;;;1.80;;
51066;SDS011;37112;45.892;-123.962;2023-02-11T10:04:22;6.30;;;1.20;;
51066;SDS011;37112;45.892;-123.962;2023-02-11T10:06:52;9.30;;;1.40;;
51066;SDS011;37112;45.892;-123.962;2023-02-11T10:11:47;3.50;;;1.00;;
51066;SDS011;37112;45.892;-123.962;2023-02-11T10:14:10;7.80;;;1.40;;
51066;SDS011;37112;45.892;-123.962;2023-02-11T10:16:49;4.20;;;1.30;;
51066;SDS011;37112;45.892;-123.962;2023-02-11T10:19:28;5.00;;;0.90;;
51066;SDS011;37112;45.892;-123.962;2023-02-11T10:21:54;4.80;;;1.60;;
51066;SDS011;37112;45.892;-123.962;2023-02-11T10:24:15;9.40;;;2.00;;
51066;SDS011;37112;45.892;-123.962;2023-02-11T10:26:29;5.70;;;1.20;;
51066;SDS011;37112;45.892;-123.962;2023-02-11T10:28:46;5.30;;;1.20;;
51066;SDS011;37112;45.892;-123.962;2023-02-11T10:31:01;3.00;;;1.10;;
51066;SDS011;37112;45.892;-123.962;2023-02-11T10:33:22;6.20;;;1.10;;
51066;SDS011;37112;45.892;-123.962;2023-02-11T10:35:39;10.00;;;1.50;;
51066;SDS011;37112;45.892;-123.962;2023-02-11T10:37:52;3.70;;;1.10;;
51066;SDS011;37112;45.892;-123.962;2023-02-11T10:40:11;9.20;;;1.40;;
51066;SDS011;37112;45.892;-123.962;2023-02-11T10:42:25;6.90;;;1.20;;
51066;SDS011;37112;45.892;-123.962;2023-02-11T10:44:39;5.80;;;1.90;;
51066;SDS011;37112;45.892;-123.962;2023-02-11T10:47:08;4.70;;;1.50;;
51066;SDS011;37112;45.892;-123.962;2023-02-11T10:49:34;9.00;;;1.80;;
51066;SDS011;37112;45.892;-123.962;2023-02-11T10:51:49;6.80;;;1.70;;
51066;SDS011;37112;45.892;-123.962;2023-02-11T10:54:21;9.50;;;2.10;;
51066;SDS011;37112;45.892;-123.962;2023-02-11T10:56:34;5.60;;;1.20;;
51066;SDS011;37112;45.892;-123.962;2023-02-11T10:58:55;11.10;;;2.70;;
51066;SDS011;37112;45.892;-123.962;2023-02-11T11:01:12;7.60;;;1.80;;
51066;SDS011;37112;45.892;-123.962;2023-02-11T11:03:31;5.10;;;1.60;;
51066;SDS011;37112;45.892;-123.962;2023-02-11T11:05:47;11.80;;;2.20;;
51066;SDS011;37112;45.892;-123.962;2023-02-11T11:08:04;11.30;;;1.90;;
51066;SDS011;37112;45.892;-123.962;2023-02-11T11:10:26;10.00;;;1.40;;
51066;SDS011;37112;45.892;-123.962;2023-02-11T11:12:47;10.10;;;1.80;;
51066;SDS011;37112;45.892;-123.962;2023-02-11T11:15:02;12.40;;;2.70;;
51066;SDS011;37112;45.892;-123.962;2023-02-11T11:17:32;9.70;;;2.50;;
51066;SDS011;37112;45.892;-123.962;2023-02-11T11:19:45;15.20;;;2.60;;
51066;SDS011;37112;45.892;-123.962;2023-02-11T11:21:58;7.90;;;2.40;;
51066;SDS011;37112;45.892;-123.962;2023-02-11T11:24:16;10.20;;;1.70;;
51066;SDS011;37112;45.892;-123.962;2023-02-11T11:26:40;7.30;;;1.30;;
51066;SDS011;37112;45.892;-123.962;2023-02-11T11:28:56;6.20;;;2.20;;
51066;SDS011;37112;45.892;-123.962;2023-02-11T11:31:17;8.80;;;1.50;;
51066;SDS011;37112;45.892;-123.962;2023-02-11T11:33:33;10.40;;;2.20;;
51066;SDS011;37112;45.892;-123.962;2023-02-11T11:35:58;8.80;;;1.80;;
51066;SDS011;37112;45.892;-123.962;2023-02-11T11:38:14;8.50;;;1.70;;
51066;SDS011;37112;45.892;-123.962;2023-02-11T11:40:28;14.20;;;2.00;;
51066;SDS011;37112;45.892;-123.962;2023-02-11T11:42:41;7.80;;;1.50;;
51066;SDS011;37112;45.892;-123.962;2023-02-11T11:44:58;8.00;;;2.00;;
51066;SDS011;37112;45.892;-123.962;2023-02-11T11:47:36;6.20;;;1.50;;
51066;SDS011;37112;45.892;-123.962;2023-02-11T11:49:59;12.20;;;1.80;;
51066;SDS011;37112;45.892;-123.962;2023-02-11T11:52:38;4.50;;;1.40;;
51066;SDS011;37112;45.892;-123.962;2023-02-11T11:55:02;4.60;;;1.30;;
51066;SDS011;37112;45.892;-123.962;2023-02-11T11:57:21;5.40;;;1.60;;
51066;SDS011;37112;45.892;-123.962;2023-02-11T11:59:37;7.70;;;1.40;;
51066;SDS011;37112;45.892;-123.962;2023-02-11T12:01:54;8.70;;;2.00;;
51066;SDS011;37112;45.892;-123.962;2023-02-11T12:07:09;6.80;;;1.10;;
51066;SDS011;37112;45.892;-123.962;2023-02-11T12:09:33;5.70;;;1.30;;
51066;SDS011;37112;45.892;-123.962;2023-02-11T12:12:00;6.50;;;1.60;;
51066;SDS011;37112;45.892;-123.962;2023-02-11T12:14:27;6.30;;;1.50;;
51066;SDS011;37112;45.892;-123.962;2023-02-11T12:16:51;7.70;;;1.70;;
51066;SDS011;37112;45.892;-123.962;2023-02-11T12:19:28;5.70;;;1.50;;
51066;SDS011;37112;45.892;-123.962;2023-02-11T12:22:18;9.20;;;1.40;;
51066;SDS011;37112;45.892;-123.962;2023-02-11T12:24:47;7.20;;;1.80;;
51066;SDS011;37112;45.892;-123.962;2023-02-11T12:27:16;11.40;;;2.30;;
51066;SDS011;37112;45.892;-123.962;2023-02-11T12:29:36;10.70;;;1.90;;
51066;SDS011;37112;45.892;-123.962;2023-02-11T12:32:09;4.80;;;1.30;;
51066;SDS011;37112;45.892;-123.962;2023-02-11T12:34:34;5.90;;;1.40;;
51066;SDS011;37112;45.892;-123.962;2023-02-11T12:37:03;8.30;;;1.60;;
51066;SDS011;37112;45.892;-123.962;2023-02-11T12:39:28;6.60;;;1.70;;
51066;SDS011;37112;45.892;-123.962;2023-02-11T12:41:54;3.90;;;1.20;;
51066;SDS011;37112;45.892;-123.962;2023-02-11T12:44:43;5.00;;;1.10;;
51066;SDS011;37112;45.892;-123.962;2023-02-11T12:47:12;6.00;;;1.30;;
51066;SDS011;37112;45.892;-123.962;2023-02-11T12:52:13;4.00;;;1.70;;
51066;SDS011;37112;45.892;-123.962;2023-02-11T12:54:50;3.80;;;1.30;;
51066;SDS011;37112;45.892;-123.962;2023-02-11T12:57:10;6.20;;;1.10;;
51066;SDS011;37112;45.892;-123.962;2023-02-11T12:59:32;2.30;;;1.50;;
51066;SDS011;37112;45.892;-123.962;2023-02-11T13:01:54;13.10;;;1.20;;
51066;SDS011;37112;45.892;-123.962;2023-02-11T13:04:10;11.00;;;1.40;;
51066;SDS011;37112;45.892;-123.962;2023-02-11T13:06:33;3.70;;;0.90;;
51066;SDS011;37112;45.892;-123.962;2023-02-11T13:08:51;7.20;;;1.40;;
51066;SDS011;37112;45.892;-123.962;2023-02-11T13:11:10;4.40;;;1.00;;
51066;SDS011;37112;45.892;-123.962;2023-02-11T13:13:27;3.40;;;1.20;;
51066;SDS011;37112;45.892;-123.962;2023-02-11T13:15:45;6.50;;;1.30;;
51066;SDS011;37112;45.892;-123.962;2023-02-11T13:18:01;8.30;;;1.60;;
51066;SDS011;37112;45.892;-123.962;2023-02-11T13:20:33;4.00;;;1.20;;